Time;durP1;ratioP1;P1;durP2;ratioP2;P2;SDS_P1;SDS_P2;PMS_P1;PMS_P2;Temp;Humidity;BMP_temperature;BMP_pressure;BME280_temperature;BME280_humidity;BME280_pressure;Samples;Min_cycle;Max_cycle;Signal;HPM_P1;HPM_P2
2022/03/26 00:02:27;;;;;;;31.65;16.85;;;2.80;99.90;;;;;;5051517;28;20043;-48
2022/03/26 00:05:51;;;;;;;29.40;16.20;;;2.70;99.90;;;;;;5063317;28;20051;-50
2022/03/26 00:09:16;;;;;;;36.55;18.30;;;2.70;99.90;;;;;;5063850;28;20032;-49
2022/03/26 00:12:02;;;;;;;30.70;15.75;;;2.60;99.90;;;;;;5052167;28;20036;-49
2022/03/26 00:14:28;;;;;;;32.85;15.85;;;2.60;99.90;;;;;;5061228;28;20477;-49
2022/03/26 00:16:53;;;;;;;29.27;14.45;;;2.50;99.90;;;;;;5055664;28;20051;-47
2022/03/26 00:19:19;;;;;;;28.42;13.85;;;2.50;99.90;;;;;;5065941;28;20074;-45
2022/03/26 00:21:47;;;;;;;29.85;15.40;;;2.50;99.90;;;;;;5045938;28;20396;-49
2022/03/26 00:24:13;;;;;;;25.60;13.75;;;2.60;99.90;;;;;;5044904;28;20056;-47
2022/03/26 00:26:39;;;;;;;29.17;14.80;;;2.50;99.90;;;;;;5066570;28;20033;-50
2022/03/26 00:29:04;;;;;;;31.13;12.75;;;2.50;99.90;;;;;;5047671;28;20036;-50
2022/03/26 00:31:33;;;;;;;29.77;14.45;;;2.50;99.90;;;;;;5068465;28;20043;-47
2022/03/26 00:33:59;;;;;;;29.52;13.45;;;2.40;99.90;;;;;;5047101;28;20110;-49
2022/03/26 00:36:24;;;;;;;26.50;13.65;;;2.40;99.90;;;;;;5068622;28;20512;-46
2022/03/26 00:38:50;;;;;;;25.30;13.65;;;2.40;99.90;;;;;;5050082;28;20139;-50
2022/03/26 00:41:15;;;;;;;28.05;13.70;;;2.30;99.90;;;;;;5053829;28;20056;-49
2022/03/26 00:43:41;;;;;;;28.98;13.80;;;2.30;99.90;;;;;;5051486;28;20032;-49
2022/03/26 00:46:06;;;;;;;26.38;12.38;;;2.30;99.90;;;;;;5068443;28;20040;-50
2022/03/26 00:48:32;;;;;;;27.83;13.65;;;2.20;99.90;;;;;;5052789;28;20033;-48
2022/03/26 00:50:57;;;;;;;30.17;14.55;;;2.20;99.90;;;;;;5067862;28;20033;-46
2022/03/26 00:53:23;;;;;;;21.60;10.95;;;2.20;99.90;;;;;;5047282;28;20049;-50
2022/03/26 00:55:48;;;;;;;30.52;15.38;;;2.10;99.90;;;;;;5067681;28;20032;-47
2022/03/26 00:58:14;;;;;;;26.85;13.50;;;2.00;99.90;;;;;;5047652;28;20048;-52
2022/03/26 01:00:39;;;;;;;29.73;13.93;;;2.00;99.90;;;;;;5067766;28;20037;-52
2022/03/26 01:03:08;;;;;;;30.50;15.32;;;2.00;99.90;;;;;;5066731;28;20028;-47
2022/03/26 01:05:34;;;;;;;24.25;13.00;;;2.00;99.90;;;;;;5048330;28;20070;-49
2022/03/26 01:08:00;;;;;;;30.25;14.38;;;1.90;99.90;;;;;;5065630;28;20037;-46
2022/03/26 01:10:26;;;;;;;30.00;14.20;;;1.90;99.90;;;;;;5057513;28;20036;-46
2022/03/26 01:12:52;;;;;;;33.40;14.98;;;1.90;99.90;;;;;;5066386;28;20457;-50
2022/03/26 01:15:19;;;;;;;30.20;14.55;;;1.80;99.90;;;;;;5045507;28;20131;-48
2022/03/26 01:17:44;;;;;;;29.95;14.93;;;1.80;99.90;;;;;;5066175;28;20082;-48
2022/03/26 01:20:10;;;;;;;29.52;15.55;;;1.80;99.90;;;;;;5048651;28;20037;-50
2022/03/26 01:22:36;;;;;;;34.08;15.85;;;1.70;99.90;;;;;;5067338;28;20083;-51
2022/03/26 01:25:02;;;;;;;29.77;14.13;;;1.70;99.90;;;;;;5061188;28;20041;-47
2022/03/26 01:27:28;;;;;;;36.05;16.13;;;1.60;99.90;;;;;;5053538;28;20055;-47
2022/03/26 01:29:53;;;;;;;33.15;15.45;;;1.60;99.90;;;;;;5070710;28;20028;-52
2022/03/26 01:32:19;;;;;;;34.45;16.08;;;1.60;99.90;;;;;;5053747;28;20041;-47
2022/03/26 01:34:45;;;;;;;34.95;16.33;;;1.50;99.90;;;;;;5070775;28;20379;-49
2022/03/26 01:37:12;;;;;;;29.67;14.82;;;1.50;99.90;;;;;;5051920;28;20024;-49
2022/03/26 01:39:37;;;;;;;35.60;15.60;;;1.50;99.90;;;;;;5070375;28;20056;-45
2022/03/26 01:42:07;;;;;;;31.05;15.00;;;1.40;99.90;;;;;;5051505;28;20488;-48
2022/03/26 01:44:33;;;;;;;34.08;15.23;;;1.40;99.90;;;;;;5070250;28;20039;-47
2022/03/26 01:47:03;;;;;;;33.35;15.93;;;1.40;99.90;;;;;;5050457;28;20033;-48
2022/03/26 01:49:29;;;;;;;28.27;14.60;;;1.30;99.90;;;;;;5070527;28;20027;-48
2022/03/26 01:51:55;;;;;;;27.25;15.13;;;1.30;99.90;;;;;;5049866;28;20504;-49
2022/03/26 01:54:21;;;;;;;34.83;16.00;;;1.30;99.90;;;;;;5070277;28;20024;-45
2022/03/26 01:56:47;;;;;;;31.15;14.90;;;1.30;99.90;;;;;;5047384;28;20029;-46
2022/03/26 01:59:13;;;;;;;28.50;14.02;;;1.20;99.90;;;;;;5069999;28;20028;-48
2022/03/26 02:01:40;;;;;;;37.30;17.80;;;1.20;99.90;;;;;;5050544;28;20036;-49
2022/03/26 02:04:08;;;;;;;34.72;15.93;;;1.20;99.90;;;;;;5048325;28;20041;-49
2022/03/26 02:06:35;;;;;;;37.67;17.40;;;1.20;99.90;;;;;;5069493;28;20028;-45
2022/03/26 02:09:06;;;;;;;32.78;15.50;;;1.20;99.90;;;;;;5048306;28;20404;-50
2022/03/26 02:11:34;;;;;;;35.10;16.90;;;1.10;99.90;;;;;;5069405;28;20377;-45
2022/03/26 02:14:02;;;;;;;36.22;15.57;;;1.10;99.90;;;;;;5048211;28;20100;-50
2022/03/26 02:16:28;;;;;;;35.90;17.67;;;1.10;99.90;;;;;;5065663;28;20025;-49
2022/03/26 02:18:54;;;;;;;36.85;18.50;;;1.10;99.90;;;;;;5048678;28;20052;-48
2022/03/26 02:21:20;;;;;;;35.60;16.45;;;1.00;99.90;;;;;;5069058;28;20370;-46
2022/03/26 02:23:47;;;;;;;29.30;13.40;;;1.00;99.90;;;;;;5048133;28;20302;-48
2022/03/26 02:26:22;;;;;;;45.80;17.20;;;1.00;99.90;;;;;;5068793;28;20090;-47
2022/03/26 02:28:49;;;;;;;32.10;16.40;;;1.00;99.90;;;;;;5044287;28;20025;-46
2022/03/26 02:31:15;;;;;;;39.85;16.67;;;1.00;99.90;;;;;;5068859;28;20502;-49
2022/03/26 02:33:42;;;;;;;35.17;18.63;;;1.00;99.90;;;;;;5047923;28;20022;-51
2022/03/26 02:36:09;;;;;;;42.78;18.08;;;0.90;99.90;;;;;;5068727;28;20036;-48
2022/03/26 02:38:36;;;;;;;35.92;15.93;;;0.90;99.90;;;;;;5047987;28;20025;-49
2022/03/26 02:41:02;;;;;;;31.92;15.40;;;0.80;99.90;;;;;;5068897;28;20032;-45
2022/03/26 02:43:28;;;;;;;39.78;17.58;;;0.80;99.90;;;;;;5047793;28;20057;-49
2022/03/26 02:45:53;;;;;;;32.50;15.95;;;0.80;99.90;;;;;;5068237;28;20064;-52
2022/03/26 02:48:19;;;;;;;43.58;19.10;;;0.80;99.90;;;;;;5046618;28;20123;-48
2022/03/26 02:50:45;;;;;;;36.58;18.45;;;0.80;99.90;;;;;;5066705;28;20024;-46
2022/03/26 02:53:12;;;;;;;46.10;19.75;;;0.90;99.90;;;;;;5046881;28;20029;-49
2022/03/26 02:55:38;;;;;;;42.15;18.48;;;0.90;99.90;;;;;;5067008;28;20496;-46
2022/03/26 02:58:04;;;;;;;45.15;19.10;;;0.80;99.90;;;;;;5057483;28;20460;-46
2022/03/26 03:00:30;;;;;;;40.10;17.98;;;0.80;99.90;;;;;;5048227;28;20033;-49
2022/03/26 03:02:55;;;;;;;41.65;19.58;;;0.80;99.90;;;;;;5065253;28;20396;-46
2022/03/26 03:05:21;;;;;;;34.70;16.08;;;0.80;99.90;;;;;;5048386;28;20060;-50
2022/03/26 03:07:47;;;;;;;47.75;19.90;;;0.80;99.90;;;;;;5064947;28;20113;-45
2022/03/26 03:10:15;;;;;;;37.10;17.58;;;0.80;99.90;;;;;;5048434;28;20079;-45
2022/03/26 03:12:42;;;;;;;36.38;17.50;;;0.80;99.90;;;;;;5065488;28;20025;-47
2022/03/26 03:15:09;;;;;;;40.60;18.25;;;0.80;99.90;;;;;;5058249;28;20028;-48
2022/03/26 03:17:37;;;;;;;44.63;20.55;;;0.80;99.90;;;;;;5052611;28;20439;-45
2022/03/26 03:20:03;;;;;;;45.53;20.40;;;0.80;99.90;;;;;;5067794;28;20036;-45
2022/03/26 03:22:29;;;;;;;41.88;20.60;;;0.80;99.90;;;;;;5052172;28;20033;-46
2022/03/26 03:24:54;;;;;;;46.47;20.67;;;0.80;99.90;;;;;;5060725;28;20059;-47
2022/03/26 03:27:20;;;;;;;43.83;18.05;;;0.80;99.90;;;;;;5050014;28;20028;-49
2022/03/26 03:29:45;;;;;;;42.20;19.92;;;0.80;99.90;;;;;;5067867;28;20427;-48
2022/03/26 03:32:11;;;;;;;37.90;18.35;;;0.70;99.90;;;;;;5048964;28;20031;-46
2022/03/26 03:34:36;;;;;;;49.63;21.80;;;0.70;99.90;;;;;;5067322;28;20031;-47
2022/03/26 03:37:02;;;;;;;41.55;19.67;;;0.80;99.90;;;;;;5048267;28;20029;-51
2022/03/26 03:39:27;;;;;;;47.53;22.98;;;0.70;99.90;;;;;;5067287;28;20020;-51
2022/03/26 03:41:53;;;;;;;46.65;20.70;;;0.70;99.90;;;;;;5047006;28;20061;-47
2022/03/26 03:44:18;;;;;;;40.92;20.33;;;0.70;99.90;;;;;;5067236;28;20140;-48
2022/03/26 03:46:44;;;;;;;47.28;22.73;;;0.70;99.90;;;;;;5048929;28;20021;-48
2022/03/26 03:49:09;;;;;;;46.30;21.23;;;0.70;99.90;;;;;;5066396;28;20036;-48
2022/03/26 03:51:35;;;;;;;41.75;20.55;;;0.70;99.90;;;;;;5048927;28;20036;-46
2022/03/26 03:54:00;;;;;;;40.28;18.02;;;0.70;99.90;;;;;;5047108;28;20083;-48
2022/03/26 03:56:26;;;;;;;39.47;19.85;;;0.70;99.90;;;;;;5067593;28;20032;-50
2022/03/26 03:58:51;;;;;;;43.40;21.20;;;0.60;99.90;;;;;;5029055;28;20400;-50
2022/03/26 04:01:17;;;;;;;38.78;18.05;;;0.60;99.90;;;;;;5069857;28;20229;-49
2022/03/26 04:03:43;;;;;;;41.13;19.10;;;0.60;99.90;;;;;;5045710;28;20046;-50
2022/03/26 04:06:08;;;;;;;33.63;16.92;;;0.60;99.90;;;;;;5061621;28;20033;-49
2022/03/26 04:08:34;;;;;;;48.53;21.27;;;0.60;99.90;;;;;;5054466;28;20029;-47
2022/03/26 04:10:59;;;;;;;48.25;21.70;;;0.60;99.90;;;;;;5071391;28;20028;-45
2022/03/26 04:13:25;;;;;;;46.88;21.25;;;0.60;99.90;;;;;;5051094;28;20053;-47
2022/03/26 04:15:50;;;;;;;47.20;21.33;;;0.50;99.90;;;;;;5055767;28;20025;-47
2022/03/26 04:18:16;;;;;;;46.97;21.27;;;0.50;99.90;;;;;;5056848;28;20374;-48
2022/03/26 04:20:41;;;;;;;48.20;21.35;;;0.50;99.90;;;;;;5071754;28;20043;-48
2022/03/26 04:23:08;;;;;;;46.67;21.23;;;0.50;99.90;;;;;;5050683;28;20268;-49
2022/03/26 04:25:33;;;;;;;40.95;20.52;;;0.50;99.90;;;;;;5066538;28;20049;-46
2022/03/26 04:27:59;;;;;;;47.88;21.83;;;0.40;99.90;;;;;;5040548;28;20024;-46
2022/03/26 04:30:25;;;;;;;31.88;17.83;;;0.40;99.90;;;;;;5032235;28;20036;-46
2022/03/26 04:32:50;;;;;;;44.00;20.50;;;0.40;99.90;;;;;;5049184;28;20029;-47
2022/03/26 04:35:17;;;;;;;44.80;19.75;;;0.40;99.90;;;;;;5032639;28;20030;-47
2022/03/26 04:37:43;;;;;;;37.30;18.02;;;0.40;99.90;;;;;;5049333;28;20428;-47
2022/03/26 04:40:12;;;;;;;55.45;22.98;;;0.40;99.90;;;;;;5032223;28;20035;-45
2022/03/26 04:42:39;;;;;;;46.00;20.98;;;0.40;99.90;;;;;;5049109;28;20540;-47
2022/03/26 04:45:06;;;;;;;39.17;19.50;;;0.40;99.90;;;;;;5051525;28;20116;-49
2022/03/26 04:47:31;;;;;;;37.53;17.60;;;0.50;99.90;;;;;;5036197;28;20033;-48
2022/03/26 04:49:57;;;;;;;46.35;20.15;;;0.50;99.90;;;;;;5051696;28;20110;-45
2022/03/26 04:52:22;;;;;;;48.63;21.52;;;0.50;99.90;;;;;;5035215;28;20049;-48
2022/03/26 04:54:48;;;;;;;30.40;15.82;;;0.50;99.90;;;;;;5050960;28;20053;-47
2022/03/26 04:57:15;;;;;;;45.42;21.08;;;0.60;99.90;;;;;;5033938;28;20086;-45
2022/03/26 04:59:40;;;;;;;55.40;22.98;;;0.60;99.90;;;;;;5051503;28;20176;-45
2022/03/26 05:02:06;;;;;;;50.00;23.52;;;0.70;99.90;;;;;;5032800;28;20137;-46
2022/03/26 05:04:31;;;;;;;59.40;23.67;;;0.70;99.90;;;;;;5043544;28;20042;-47
2022/03/26 05:06:57;;;;;;;52.47;23.60;;;0.70;99.90;;;;;;5028151;28;20044;-50
2022/03/26 05:09:22;;;;;;;41.65;17.88;;;0.90;99.90;;;;;;5045741;28;20029;-50
2022/03/26 05:11:48;;;;;;;49.88;21.83;;;0.90;99.90;;;;;;5047611;28;20028;-46
2022/03/26 05:14:13;;;;;;;42.50;20.20;;;0.90;99.90;;;;;;5046349;28;20457;-47
2022/03/26 05:16:39;;;;;;;47.97;21.00;;;1.00;99.90;;;;;;5029256;28;20322;-48
2022/03/26 05:19:04;;;;;;;47.80;22.35;;;1.10;99.90;;;;;;5045454;28;20067;-48
2022/03/26 05:21:30;;;;;;;50.17;21.02;;;1.10;99.90;;;;;;5048331;28;20033;-49
2022/03/26 05:23:55;;;;;;;46.45;20.98;;;1.20;99.90;;;;;;5046033;28;20115;-46
2022/03/26 05:26:22;;;;;;;53.47;22.88;;;1.30;99.90;;;;;;5065461;28;20055;-46
2022/03/26 05:28:48;;;;;;;49.45;23.05;;;1.50;99.90;;;;;;5065799;28;20086;-49
2022/03/26 05:31:14;;;;;;;47.70;21.95;;;1.60;99.90;;;;;;5066334;28;20039;-50
2022/03/26 05:33:40;;;;;;;42.33;21.98;;;1.70;99.90;;;;;;5068116;28;20029;-45
2022/03/26 05:36:06;;;;;;;43.38;21.27;;;2.00;99.90;;;;;;5046567;28;20029;-47
2022/03/26 05:38:32;;;;;;;45.25;21.65;;;2.30;99.90;;;;;;5066697;28;20027;-45
2022/03/26 05:40:58;;;;;;;51.88;21.95;;;2.60;99.90;;;;;;5067248;28;20043;-53
2022/03/26 05:43:24;;;;;;;46.15;21.08;;;3.30;99.90;;;;;;5047100;28;20108;-47
2022/03/26 05:45:51;;;;;;;37.13;19.17;;;4.20;99.90;;;;;;5067052;28;20048;-49
2022/03/26 05:48:19;;;;;;;36.28;18.83;;;5.70;99.90;;;;;;5048122;28;20048;-53
2022/03/26 05:50:44;;;;;;;39.00;19.70;;;7.40;96.10;;;;;;5061344;28;20123;-45
2022/03/26 05:53:10;;;;;;;32.88;17.05;;;8.80;84.30;;;;;;5047748;28;20430;-50
2022/03/26 05:55:36;;;;;;;40.63;19.20;;;10.10;71.40;;;;;;5066965;28;20036;-48
2022/03/26 05:58:01;;;;;;;31.50;17.70;;;11.40;62.50;;;;;;5051277;28;20063;-47
2022/03/26 06:00:27;;;;;;;38.58;18.15;;;12.40;53.30;;;;;;5067598;28;20837;-47
2022/03/26 06:02:52;;;;;;;28.10;16.50;;;13.20;48.60;;;;;;5051240;28;20021;-52
2022/03/26 06:05:18;;;;;;;27.10;15.70;;;14.10;45.00;;;;;;5068245;28;20097;-47
2022/03/26 06:07:43;;;;;;;27.77;16.60;;;15.10;41.60;;;;;;5043934;28;20017;-50
2022/03/26 06:10:09;;;;;;;30.77;18.25;;;16.00;38.00;;;;;;5049086;28;20051;-49
2022/03/26 06:12:35;;;;;;;25.17;14.60;;;16.80;34.90;;;;;;5067245;28;20155;-53
2022/03/26 06:15:03;;;;;;;25.63;16.20;;;17.40;32.40;;;;;;5064259;28;20161;-50
2022/03/26 06:17:28;;;;;;;25.98;14.95;;;18.00;30.30;;;;;;5050302;28;20456;-53
2022/03/26 06:19:54;;;;;;;24.00;15.43;;;18.60;29.50;;;;;;5069684;28;20155;-54
2022/03/26 06:22:19;;;;;;;25.20;15.88;;;19.20;27.20;;;;;;5049525;28;20037;-53
2022/03/26 06:24:45;;;;;;;27.80;17.48;;;19.80;26.30;;;;;;5063732;28;20420;-52
2022/03/26 06:27:11;;;;;;;31.35;18.77;;;20.10;24.20;;;;;;5047577;28;20027;-48
2022/03/26 06:29:36;;;;;;;27.08;16.17;;;20.50;24.80;;;;;;5069559;28;20020;-51
2022/03/26 06:32:02;;;;;;;24.95;16.35;;;21.10;23.50;;;;;;5049857;28;20025;-52
2022/03/26 06:34:28;;;;;;;27.83;17.45;;;21.50;22.20;;;;;;5051630;28;20036;-48
2022/03/26 06:36:54;;;;;;;22.77;16.30;;;22.00;22.10;;;;;;5069491;28;20024;-54
2022/03/26 06:39:19;;;;;;;30.27;16.90;;;22.50;20.20;;;;;;5052874;28;20036;-52
2022/03/26 06:41:45;;;;;;;25.35;17.38;;;22.90;19.70;;;;;;5069351;28;20028;-50
2022/03/26 06:44:12;;;;;;;25.75;16.25;;;23.40;18.80;;;;;;5051061;28;20055;-49
2022/03/26 06:46:39;;;;;;;23.98;15.98;;;23.70;18.00;;;;;;5069311;28;20090;-52
2022/03/26 06:49:06;;;;;;;24.98;16.73;;;24.00;17.70;;;;;;5050388;28;20063;-55
2022/03/26 06:51:34;;;;;;;21.30;15.38;;;24.30;17.10;;;;;;5069219;28;20107;-49
2022/03/26 06:54:00;;;;;;;20.48;14.13;;;24.80;16.70;;;;;;5031378;28;20028;-50
2022/03/26 06:56:26;;;;;;;25.42;15.13;;;25.00;15.10;;;;;;5069284;28;20025;-54
2022/03/26 06:58:52;;;;;;;22.77;16.30;;;25.20;14.60;;;;;;5048559;28;20169;-52
2022/03/26 07:01:17;;;;;;;24.13;16.17;;;25.50;15.00;;;;;;5069219;28;20491;-52
2022/03/26 07:03:43;;;;;;;26.58;17.95;;;26.00;13.80;;;;;;5049480;28;20404;-53
2022/03/26 07:06:09;;;;;;;24.20;16.58;;;26.20;11.70;;;;;;5066958;28;20032;-55
2022/03/26 07:08:34;;;;;;;20.67;14.40;;;26.20;12.00;;;;;;5031534;28;20025;-52
2022/03/26 07:11:01;;;;;;;21.20;14.75;;;26.30;10.40;;;;;;5047782;28;20094;-53
2022/03/26 07:14:06;;;;;;;22.35;16.00;;;26.60;11.70;;;;;;5049605;28;20567;-51
2022/03/26 07:17:32;;;;;;;21.98;14.65;;;27.00;8.90;;;;;;5048510;28;20076;-56
2022/03/26 07:21:00;;;;;;;26.05;16.67;;;26.50;6.70;;;;;;5059581;28;20036;-51
2022/03/26 07:24:22;;;;;;;23.60;15.98;;;26.10;7.00;;;;;;5047779;28;20124;-51
2022/03/26 07:27:51;;;;;;;24.40;16.83;;;25.80;5.60;;;;;;5057126;28;20424;-50
2022/03/26 07:31:16;;;;;;;25.25;14.85;;;26.20;5.80;;;;;;5065124;28;20033;-55
2022/03/26 07:34:42;;;;;;;23.00;16.83;;;26.80;5.20;;;;;;5051999;28;20071;-56
2022/03/26 07:38:07;;;;;;;23.08;15.02;;;27.20;5.50;;;;;;5040742;28;20037;-50
2022/03/26 07:41:32;;;;;;;25.20;16.05;;;27.50;4.30;;;;;;5054902;28;20033;-52
2022/03/26 07:44:58;;;;;;;22.25;16.30;;;27.60;3.90;;;;;;5027987;28;20394;-52
2022/03/26 07:48:23;;;;;;;22.85;15.30;;;28.10;2.90;;;;;;5061173;28;20047;-54
2022/03/26 07:51:48;;;;;;;22.55;15.60;;;28.40;3.80;;;;;;5054948;28;20545;-54
2022/03/26 07:55:14;;;;;;;20.17;13.82;;;28.30;3.30;;;;;;5028609;28;20049;-56
2022/03/26 07:58:39;;;;;;;24.55;16.13;;;29.00;2.10;;;;;;5060284;28;20036;-52
2022/03/26 08:02:04;;;;;;;18.15;13.85;;;29.40;2.30;;;;;;5048523;28;20037;-53
2022/03/26 08:05:30;;;;;;;22.60;16.63;;;29.50;1.80;;;;;;5056540;28;20110;-53
2022/03/26 08:08:55;;;;;;;20.17;14.75;;;29.30;2.80;;;;;;5056620;28;20393;-55
2022/03/26 08:12:20;;;;;;;20.92;15.30;;;29.40;1.90;;;;;;5062255;28;20036;-54
2022/03/26 08:15:46;;;;;;;18.83;14.60;;;29.80;1.50;;;;;;5050554;28;20032;-56
2022/03/26 08:19:11;;;;;;;25.92;16.65;;;29.80;1.00;;;;;;5028267;28;20041;-54
2022/03/26 08:22:37;;;;;;;18.67;14.48;;;29.20;1.90;;;;;;5052354;28;20121;-56
2022/03/26 08:29:28;;;;;;;18.50;13.38;;;28.90;1.10;;;;;;5067801;28;20089;-53
2022/03/26 08:32:52;;;;;;;18.90;13.23;;;29.50;1.70;;;;;;5058927;28;20047;-56
2022/03/26 08:36:17;;;;;;;22.15;13.98;;;30.00;1.00;;;;;;5032914;28;20127;-52
2022/03/26 08:39:43;;;;;;;17.60;13.82;;;30.20;1.00;;;;;;5050523;28;20037;-54
2022/03/26 08:43:08;;;;;;;21.42;14.50;;;30.20;1.00;;;;;;5063558;28;20033;-54
2022/03/26 08:46:34;;;;;;;16.45;12.90;;;29.90;1.00;;;;;;5037200;28;20094;-54
2022/03/26 08:49:59;;;;;;;19.85;13.27;;;29.60;1.00;;;;;;5031886;28;20021;-53
2022/03/26 08:53:24;;;;;;;22.90;16.60;;;28.50;1.00;;;;;;5060107;28;20036;-55
2022/03/26 08:56:49;;;;;;;20.60;13.82;;;27.00;2.70;;;;;;5065849;28;20623;-54
2022/03/26 09:00:16;;;;;;;16.65;12.98;;;25.80;4.00;;;;;;5059766;28;20040;-55
2022/03/26 09:03:43;;;;;;;16.95;13.02;;;25.70;4.50;;;;;;5065390;28;20037;-54
2022/03/26 09:07:05;;;;;;;13.55;10.55;;;25.70;4.90;;;;;;5046937;28;20041;-48
2022/03/26 09:10:31;;;;;;;15.90;11.98;;;25.90;4.80;;;;;;5031136;28;20037;-55
2022/03/26 09:13:56;;;;;;;18.00;11.70;;;24.30;6.20;;;;;;5031278;28;20109;-53
2022/03/26 09:17:22;;;;;;;15.88;11.18;;;22.70;8.70;;;;;;5040529;28;20040;-49
2022/03/26 09:20:47;;;;;;;19.40;12.10;;;21.30;11.40;;;;;;5063681;28;20024;-52
2022/03/26 09:24:15;;;;;;;19.77;12.60;;;20.10;13.50;;;;;;5056282;28;20071;-54
2022/03/26 09:27:38;;;;;;;21.25;12.73;;;19.50;15.70;;;;;;5056607;28;20051;-48
2022/03/26 09:31:03;;;;;;;20.85;12.88;;;19.00;17.60;;;;;;5064226;28;20132;-53
2022/03/26 09:34:28;;;;;;;24.30;13.48;;;18.40;19.80;;;;;;5030702;28;20033;-49
2022/03/26 09:37:54;;;;;;;20.48;12.73;;;18.50;19.60;;;;;;5062114;28;20044;-53
2022/03/26 09:41:20;;;;;;;17.88;11.90;;;18.80;19.90;;;;;;5057085;28;20032;-53
2022/03/26 09:44:44;;;;;;;19.77;11.90;;;18.90;19.90;;;;;;5050711;28;20442;-54
2022/03/26 09:48:10;;;;;;;17.55;12.02;;;18.90;18.50;;;;;;5046296;28;20048;-52
2022/03/26 09:51:35;;;;;;;20.98;13.63;;;18.90;19.60;;;;;;5053722;28;20493;-53
2022/03/26 09:55:01;;;;;;;19.92;13.30;;;19.00;19.90;;;;;;5029401;28;20029;-50
2022/03/26 09:58:26;;;;;;;18.95;12.55;;;19.30;19.70;;;;;;5064191;28;20463;-50
2022/03/26 10:01:51;;;;;;;21.73;14.23;;;19.80;18.10;;;;;;5056503;28;20051;-55
2022/03/26 10:05:17;;;;;;;19.52;12.18;;;18.90;19.90;;;;;;5045621;28;20044;-55
2022/03/26 10:09:01;;;;;;;23.35;14.85;;;18.90;19.90;;;;;;5063697;28;20043;-54
2022/03/26 10:12:32;;;;;;;21.17;12.48;;;18.80;21.90;;;;;;5066250;28;20090;-54
2022/03/26 10:15:57;;;;;;;21.15;12.38;;;18.70;21.50;;;;;;5046024;28;20443;-52
2022/03/26 10:19:23;;;;;;;31.40;17.95;;;18.70;21.90;;;;;;5056291;28;20039;-55
2022/03/26 10:22:51;;;;;;;28.35;15.00;;;18.50;22.40;;;;;;5028508;28;20084;-50
2022/03/26 10:26:23;;;;;;;24.60;15.05;;;18.50;22.10;;;;;;5061913;28;20686;-50
2022/03/26 10:29:48;;;;;;;23.38;15.30;;;18.20;22.90;;;;;;5049005;28;20021;-52
2022/03/26 10:33:13;;;;;;;28.38;17.40;;;18.10;23.90;;;;;;5057944;28;20111;-52
2022/03/26 10:36:39;;;;;;;22.90;13.45;;;17.90;24.50;;;;;;5066396;28;20455;-49
2022/03/26 10:40:04;;;;;;;18.58;12.88;;;17.80;24.70;;;;;;5046618;28;20033;-49
2022/03/26 10:43:36;;;;;;;21.50;13.02;;;17.50;26.10;;;;;;5057917;28;20046;-50
2022/03/26 10:47:04;;;;;;;19.40;12.48;;;17.30;27.30;;;;;;5057452;28;20511;-51
2022/03/26 10:50:29;;;;;;;20.30;13.23;;;17.30;27.90;;;;;;5042888;28;20065;-52
2022/03/26 10:53:57;;;;;;;24.05;15.18;;;17.20;26.50;;;;;;5055905;28;20032;-54
2022/03/26 10:57:24;;;;;;;30.48;17.45;;;17.00;26.70;;;;;;5050025;28;20787;-55
2022/03/26 11:00:49;;;;;;;29.25;16.60;;;16.60;29.30;;;;;;5058840;28;20024;-53
2022/03/26 11:04:14;;;;;;;22.63;14.20;;;16.40;29.40;;;;;;5056660;28;20107;-52
2022/03/26 11:07:41;;;;;;;22.42;13.50;;;16.60;31.00;;;;;;5050319;28;20060;-50
2022/03/26 11:11:05;;;;;;;25.27;13.75;;;17.00;29.80;;;;;;5047303;28;20086;-55
2022/03/26 11:14:33;;;;;;;26.10;15.60;;;17.40;28.00;;;;;;5053352;28;20045;-55
2022/03/26 11:17:34;;;;;;;24.55;14.82;;;17.40;28.40;;;;;;5048020;28;20254;-54
2022/03/26 11:21:03;;;;;;;23.48;15.65;;;17.40;27.00;;;;;;5059309;28;20063;-52
2022/03/26 11:23:51;;;;;;;29.92;18.35;;;17.20;28.20;;;;;;5055155;28;20078;-53
2022/03/26 11:27:25;;;;;;;25.25;15.77;;;16.90;27.80;;;;;;5048403;28;20397;-55
2022/03/26 11:30:30;;;;;;;27.42;16.20;;;16.80;29.40;;;;;;5044899;28;20523;-55
2022/03/26 11:33:55;;;;;;;30.50;18.52;;;16.80;29.40;;;;;;5054953;28;20090;-49
2022/03/26 11:37:24;;;;;;;26.60;15.43;;;16.90;29.20;;;;;;5062333;28;20033;-53
2022/03/26 11:40:45;;;;;;;30.50;16.33;;;17.10;29.00;;;;;;5055181;28;20108;-53
2022/03/26 11:43:42;;;;;;;26.67;16.35;;;17.10;29.90;;;;;;5062725;28;20048;-54
2022/03/26 11:50:45;;;;;;;25.52;15.55;;;17.00;30.00;;;;;;5038253;28;20112;-50
2022/03/26 11:54:18;;;;;;;29.95;17.13;;;17.00;30.00;;;;;;5027631;28;20069;-51
2022/03/26 11:57:46;;;;;;;23.50;14.52;;;16.90;31.50;;;;;;5065015;28;20119;-52
2022/03/26 12:01:14;;;;;;;25.85;14.77;;;17.00;32.10;;;;;;5049710;28;20045;-54
2022/03/26 12:04:20;;;;;;;;;;;17.10;32.00;;;;;;5056683;28;20082;-51
2022/03/26 12:07:48;;;;;;;21.50;12.77;;;17.10;32.90;;;;;;5060595;28;19912;-53
2022/03/26 12:11:13;;;;;;;21.48;14.80;;;17.00;32.60;;;;;;5038499;28;20029;-52
2022/03/26 12:14:39;;;;;;;23.08;12.82;;;16.90;32.20;;;;;;5028439;28;20374;-54
2022/03/26 12:18:28;;;;;;;21.02;13.00;;;16.60;34.40;;;;;;5051738;28;20041;-55
2022/03/26 12:22:09;;;;;;;24.05;14.02;;;16.60;34.20;;;;;;4945724;28;20102;-51
2022/03/26 12:25:34;;;;;;;23.40;13.43;;;16.40;35.90;;;;;;4975090;28;20441;-56
2022/03/26 12:28:42;;;;;;;19.77;12.40;;;16.20;35.70;;;;;;5041837;28;20029;-53
2022/03/26 12:32:11;;;;;;;27.73;15.38;;;16.00;36.30;;;;;;5058165;28;20086;-53
2022/03/26 12:35:39;;;;;;;22.88;13.13;;;15.80;38.50;;;;;;5063639;28;20036;-50
2022/03/26 12:38:46;;;;;;;;;;;15.60;40.30;;;;;;5048700;28;20749;-56
2022/03/26 12:42:10;;;;;;;19.55;11.88;;;15.50;40.70;;;;;;5058891;28;19923;-54
2022/03/26 12:45:35;;;;;;;23.65;13.27;;;15.30;40.90;;;;;;5045072;28;20076;-53
2022/03/26 12:49:00;;;;;;;19.92;11.52;;;15.00;42.10;;;;;;5053223;28;20140;-54
2022/03/26 12:52:29;;;;;;;19.60;12.52;;;14.80;44.70;;;;;;5055675;28;20036;-55
2022/03/26 12:55:34;;;;;;;;;;;14.70;46.70;;;;;;5068725;28;20572;-54
2022/03/26 12:59:00;;;;;;;21.52;12.23;;;14.50;49.50;;;;;;5054754;28;20395;-55
2022/03/26 13:02:25;;;;;;;19.73;12.23;;;14.30;50.60;;;;;;5066283;28;20075;-52
2022/03/26 13:05:50;;;;;;;23.52;12.27;;;14.10;51.90;;;;;;5058728;28;20540;-55
2022/03/26 13:09:16;;;;;;;21.33;12.40;;;14.00;54.60;;;;;;5060359;28;20028;-55
2022/03/26 13:12:24;;;;;;;22.45;12.55;;;13.80;54.50;;;;;;5063394;28;20036;-51
2022/03/26 13:15:49;;;;;;;25.83;15.93;;;13.60;56.70;;;;;;5046066;28;20091;-55
2022/03/26 13:19:27;;;;;;;24.15;13.95;;;13.50;56.00;;;;;;5058502;28;20037;-52
2022/03/26 13:22:56;;;;;;;23.17;13.48;;;13.40;56.50;;;;;;5067628;28;20025;-54
2022/03/26 13:26:01;;;;;;;;;;;13.30;57.90;;;;;;5045986;28;20045;-53
2022/03/26 13:29:29;;;;;;;27.67;15.95;;;13.20;62.50;;;;;;5042259;28;19913;-55
2022/03/26 13:32:56;;;;;;;26.25;14.73;;;13.10;65.50;;;;;;5049323;28;20036;-56
2022/03/26 13:36:20;;;;;;;23.52;12.95;;;12.90;64.80;;;;;;5055418;28;20032;-55
2022/03/26 13:40:16;;;;;;;24.00;13.55;;;13.00;63.20;;;;;;5035337;28;20067;-48
2022/03/26 13:43:41;;;;;;;19.92;12.15;;;12.90;70.10;;;;;;5043060;28;20033;-53
2022/03/26 13:47:06;;;;;;;22.40;12.55;;;12.80;69.30;;;;;;5055420;28;20171;-55
2022/03/26 13:50:47;;;;;;;19.67;11.93;;;12.70;70.00;;;;;;5049179;28;20044;-54
2022/03/26 13:54:12;;;;;;;21.40;13.07;;;12.80;67.90;;;;;;5047677;28;20037;-51
2022/03/26 13:57:38;;;;;;;13.80;9.13;;;12.90;67.20;;;;;;5038090;28;20432;-52
2022/03/26 14:01:03;;;;;;;18.30;10.90;;;12.90;69.60;;;;;;5059789;28;20037;-53
2022/03/26 14:04:42;;;;;;;16.35;9.18;;;12.90;67.40;;;;;;5052584;28;20116;-55
2022/03/26 14:08:06;;;;;;;17.02;10.27;;;12.90;68.80;;;;;;5043609;28;20378;-55
2022/03/26 14:10:51;;;;;;;16.55;9.95;;;12.90;68.60;;;;;;5046042;28;20108;-55
2022/03/26 14:13:57;;;;;;;14.93;9.20;;;12.90;65.70;;;;;;5059352;28;20167;-49
2022/03/26 14:17:22;;;;;;;12.05;7.75;;;12.80;70.10;;;;;;5058296;28;20109;-54
2022/03/26 14:20:48;;;;;;;16.10;8.80;;;13.00;69.90;;;;;;5055476;28;20037;-56
2022/03/26 14:24:13;;;;;;;18.23;10.38;;;13.10;64.00;;;;;;5067115;28;20156;-54
2022/03/26 14:27:38;;;;;;;13.20;9.20;;;13.00;68.20;;;;;;5058164;28;20048;-54
2022/03/26 14:31:04;;;;;;;12.63;7.72;;;13.00;68.80;;;;;;5049257;28;20440;-53
2022/03/26 14:34:29;;;;;;;11.15;6.45;;;13.00;68.20;;;;;;5065375;28;20086;-54
2022/03/26 14:37:54;;;;;;;10.80;6.80;;;13.00;69.00;;;;;;5049604;28;20076;-56
2022/03/26 14:41:20;;;;;;;11.05;6.18;;;12.90;70.20;;;;;;5057753;28;20033;-56
2022/03/26 14:44:45;;;;;;;9.80;5.60;;;12.90;68.30;;;;;;5055776;28;20577;-55
2022/03/26 14:48:11;;;;;;;8.52;5.45;;;13.00;67.70;;;;;;5050876;28;20075;-52